sensor_id;sensor_type;location;lat;lon;timestamp;temperature;humidity
73777;DHT22;62088;50.240;2.696;2023-04-29T00:01:24;12.50;79.50
73777;DHT22;62088;50.240;2.696;2023-04-29T00:03:52;12.50;79.50
73777;DHT22;62088;50.240;2.696;2023-04-29T00:06:20;12.50;79.50
73777;DHT22;62088;50.240;2.696;2023-04-29T00:08:47;12.40;79.60
73777;DHT22;62088;50.240;2.696;2023-04-29T00:11:14;12.40;79.60
73777;DHT22;62088;50.240;2.696;2023-04-29T00:13:41;12.40;79.80
73777;DHT22;62088;50.240;2.696;2023-04-29T00:16:09;12.40;79.90
73777;DHT22;62088;50.240;2.696;2023-04-29T00:18:37;12.40;80.00
73777;DHT22;62088;50.240;2.696;2023-04-29T00:21:04;12.40;80.10
73777;DHT22;62088;50.240;2.696;2023-04-29T00:23:34;12.40;80.30
73777;DHT22;62088;50.240;2.696;2023-04-29T00:26:01;12.40;80.50
73777;DHT22;62088;50.240;2.696;2023-04-29T00:28:28;12.40;80.60
73777;DHT22;62088;50.240;2.696;2023-04-29T00:30:55;12.40;80.70
73777;DHT22;62088;50.240;2.696;2023-04-29T00:33:22;12.40;80.80
73777;DHT22;62088;50.240;2.696;2023-04-29T00:35:50;12.40;80.90
73777;DHT22;62088;50.240;2.696;2023-04-29T00:38:17;12.40;81.00
73777;DHT22;62088;50.240;2.696;2023-04-29T00:40:45;12.40;81.00
73777;DHT22;62088;50.240;2.696;2023-04-29T00:43:12;12.40;81.10
73777;DHT22;62088;50.240;2.696;2023-04-29T00:45:39;12.40;81.10
73777;DHT22;62088;50.240;2.696;2023-04-29T00:48:06;12.40;81.10
73777;DHT22;62088;50.240;2.696;2023-04-29T00:50:34;12.40;81.10
73777;DHT22;62088;50.240;2.696;2023-04-29T00:53:02;12.40;81.10
73777;DHT22;62088;50.240;2.696;2023-04-29T00:55:30;12.40;81.00
73777;DHT22;62088;50.240;2.696;2023-04-29T00:57:58;12.40;80.90
73777;DHT22;62088;50.240;2.696;2023-04-29T01:00:27;12.40;80.70
73777;DHT22;62088;50.240;2.696;2023-04-29T01:02:55;12.40;80.60
73777;DHT22;62088;50.240;2.696;2023-04-29T01:05:23;12.40;80.40
73777;DHT22;62088;50.240;2.696;2023-04-29T01:10:52;12.40;80.00
73777;DHT22;62088;50.240;2.696;2023-04-29T01:16:03;12.30;79.70
73777;DHT22;62088;50.240;2.696;2023-04-29T01:18:54;12.20;79.70
73777;DHT22;62088;50.240;2.696;2023-04-29T01:21:26;12.20;79.60
73777;DHT22;62088;50.240;2.696;2023-04-29T01:23:53;12.10;79.50
73777;DHT22;62088;50.240;2.696;2023-04-29T01:26:29;12.10;79.40
73777;DHT22;62088;50.240;2.696;2023-04-29T01:29:42;12.10;79.40
73777;DHT22;62088;50.240;2.696;2023-04-29T01:32:17;12.00;79.40
73777;DHT22;62088;50.240;2.696;2023-04-29T01:34:59;12.00;79.50
73777;DHT22;62088;50.240;2.696;2023-04-29T01:37:48;12.00;79.50
73777;DHT22;62088;50.240;2.696;2023-04-29T01:40:25;12.00;79.50
73777;DHT22;62088;50.240;2.696;2023-04-29T01:43:07;11.90;79.50
73777;DHT22;62088;50.240;2.696;2023-04-29T01:45:41;11.90;79.60
73777;DHT22;62088;50.240;2.696;2023-04-29T01:48:10;11.90;79.60
73777;DHT22;62088;50.240;2.696;2023-04-29T01:50:39;11.90;79.70
73777;DHT22;62088;50.240;2.696;2023-04-29T01:53:10;11.90;79.60
73777;DHT22;62088;50.240;2.696;2023-04-29T01:55:38;11.90;79.60
73777;DHT22;62088;50.240;2.696;2023-04-29T01:58:23;11.90;79.60
73777;DHT22;62088;50.240;2.696;2023-04-29T02:01:09;11.90;79.80
73777;DHT22;62088;50.240;2.696;2023-04-29T02:03:38;11.80;79.90
73777;DHT22;62088;50.240;2.696;2023-04-29T02:06:07;11.80;80.00
73777;DHT22;62088;50.240;2.696;2023-04-29T02:08:35;11.80;80.10
73777;DHT22;62088;50.240;2.696;2023-04-29T02:11:03;11.80;80.20
73777;DHT22;62088;50.240;2.696;2023-04-29T02:13:33;11.80;80.20
73777;DHT22;62088;50.240;2.696;2023-04-29T02:16:11;11.80;80.30
73777;DHT22;62088;50.240;2.696;2023-04-29T02:19:08;11.80;80.40
73777;DHT22;62088;50.240;2.696;2023-04-29T02:21:37;11.90;80.40
73777;DHT22;62088;50.240;2.696;2023-04-29T02:24:06;11.80;80.50
73777;DHT22;62088;50.240;2.696;2023-04-29T02:26:33;11.90;80.60
73777;DHT22;62088;50.240;2.696;2023-04-29T02:29:00;11.90;80.60
73777;DHT22;62088;50.240;2.696;2023-04-29T02:31:27;11.90;80.60
73777;DHT22;62088;50.240;2.696;2023-04-29T02:33:55;11.90;80.70
73777;DHT22;62088;50.240;2.696;2023-04-29T02:36:22;11.80;80.70
73777;DHT22;62088;50.240;2.696;2023-04-29T02:38:51;11.90;80.80
73777;DHT22;62088;50.240;2.696;2023-04-29T02:41:21;11.90;80.80
73777;DHT22;62088;50.240;2.696;2023-04-29T02:43:48;11.90;80.90
73777;DHT22;62088;50.240;2.696;2023-04-29T02:46:16;11.90;80.90
73777;DHT22;62088;50.240;2.696;2023-04-29T02:48:44;11.90;80.90
73777;DHT22;62088;50.240;2.696;2023-04-29T02:51:12;11.90;81.00
73777;DHT22;62088;50.240;2.696;2023-04-29T02:53:40;11.90;81.00
73777;DHT22;62088;50.240;2.696;2023-04-29T02:56:07;11.90;81.00
73777;DHT22;62088;50.240;2.696;2023-04-29T02:58:34;11.90;81.00
73777;DHT22;62088;50.240;2.696;2023-04-29T03:01:01;11.90;81.10
73777;DHT22;62088;50.240;2.696;2023-04-29T03:03:29;11.90;81.10
73777;DHT22;62088;50.240;2.696;2023-04-29T03:05:57;11.90;81.10
73777;DHT22;62088;50.240;2.696;2023-04-29T03:08:24;11.90;81.20
73777;DHT22;62088;50.240;2.696;2023-04-29T03:10:51;11.90;81.20
73777;DHT22;62088;50.240;2.696;2023-04-29T03:13:18;11.90;81.20
73777;DHT22;62088;50.240;2.696;2023-04-29T03:15:46;11.90;81.20
73777;DHT22;62088;50.240;2.696;2023-04-29T03:18:13;11.90;81.20
73777;DHT22;62088;50.240;2.696;2023-04-29T03:20:40;11.90;81.10
73777;DHT22;62088;50.240;2.696;2023-04-29T03:23:07;11.90;81.10
73777;DHT22;62088;50.240;2.696;2023-04-29T03:25:35;11.90;81.10
73777;DHT22;62088;50.240;2.696;2023-04-29T03:28:02;11.90;81.10
73777;DHT22;62088;50.240;2.696;2023-04-29T03:30:30;11.90;81.00
73777;DHT22;62088;50.240;2.696;2023-04-29T03:32:58;11.90;81.10
73777;DHT22;62088;50.240;2.696;2023-04-29T03:35:27;11.90;81.10
73777;DHT22;62088;50.240;2.696;2023-04-29T03:38:26;11.90;81.10
73777;DHT22;62088;50.240;2.696;2023-04-29T03:40:54;11.90;81.00
73777;DHT22;62088;50.240;2.696;2023-04-29T03:43:21;11.90;81.00
73777;DHT22;62088;50.240;2.696;2023-04-29T03:45:48;11.90;81.00
73777;DHT22;62088;50.240;2.696;2023-04-29T03:48:18;11.90;80.90
73777;DHT22;62088;50.240;2.696;2023-04-29T03:50:47;11.90;80.80
73777;DHT22;62088;50.240;2.696;2023-04-29T03:53:14;11.80;80.70
73777;DHT22;62088;50.240;2.696;2023-04-29T03:55:42;11.80;80.60
73777;DHT22;62088;50.240;2.696;2023-04-29T03:58:10;11.80;80.60
73777;DHT22;62088;50.240;2.696;2023-04-29T04:00:37;11.80;80.50
73777;DHT22;62088;50.240;2.696;2023-04-29T04:03:09;11.80;80.50
73777;DHT22;62088;50.240;2.696;2023-04-29T04:05:37;11.80;80.50
73777;DHT22;62088;50.240;2.696;2023-04-29T04:08:08;11.80;80.50
73777;DHT22;62088;50.240;2.696;2023-04-29T04:10:50;11.70;80.40
73777;DHT22;62088;50.240;2.696;2023-04-29T04:13:30;11.70;80.40
73777;DHT22;62088;50.240;2.696;2023-04-29T04:15:58;11.70;80.40
73777;DHT22;62088;50.240;2.696;2023-04-29T04:18:25;11.70;80.30
73777;DHT22;62088;50.240;2.696;2023-04-29T04:20:52;11.70;80.30
73777;DHT22;62088;50.240;2.696;2023-04-29T04:23:19;11.60;80.20
73777;DHT22;62088;50.240;2.696;2023-04-29T04:25:47;11.70;80.10
73777;DHT22;62088;50.240;2.696;2023-04-29T04:28:33;11.60;79.90
73777;DHT22;62088;50.240;2.696;2023-04-29T04:31:05;11.60;79.80
73777;DHT22;62088;50.240;2.696;2023-04-29T04:33:33;11.60;79.60
73777;DHT22;62088;50.240;2.696;2023-04-29T04:36:00;11.60;79.60
73777;DHT22;62088;50.240;2.696;2023-04-29T04:38:27;11.50;79.50
73777;DHT22;62088;50.240;2.696;2023-04-29T04:40:55;11.50;79.40
73777;DHT22;62088;50.240;2.696;2023-04-29T04:43:36;11.40;79.30
73777;DHT22;62088;50.240;2.696;2023-04-29T04:46:11;11.40;79.40
73777;DHT22;62088;50.240;2.696;2023-04-29T04:48:48;11.40;79.30
73777;DHT22;62088;50.240;2.696;2023-04-29T04:51:15;11.40;79.30
73777;DHT22;62088;50.240;2.696;2023-04-29T04:53:42;11.40;79.30
73777;DHT22;62088;50.240;2.696;2023-04-29T04:56:20;11.40;79.30
73777;DHT22;62088;50.240;2.696;2023-04-29T04:58:48;11.40;79.30
73777;DHT22;62088;50.240;2.696;2023-04-29T05:01:15;11.30;79.20
73777;DHT22;62088;50.240;2.696;2023-04-29T05:03:42;11.40;79.20
73777;DHT22;62088;50.240;2.696;2023-04-29T05:06:10;11.30;79.20
73777;DHT22;62088;50.240;2.696;2023-04-29T05:08:39;11.30;79.10
73777;DHT22;62088;50.240;2.696;2023-04-29T05:11:15;11.20;79.00
73777;DHT22;62088;50.240;2.696;2023-04-29T05:13:45;11.20;79.00
73777;DHT22;62088;50.240;2.696;2023-04-29T05:16:12;11.20;79.10
73777;DHT22;62088;50.240;2.696;2023-04-29T05:18:43;11.20;79.10
73777;DHT22;62088;50.240;2.696;2023-04-29T05:21:12;11.20;79.00
73777;DHT22;62088;50.240;2.696;2023-04-29T05:23:41;11.20;78.90
73777;DHT22;62088;50.240;2.696;2023-04-29T05:26:09;11.20;78.90
73777;DHT22;62088;50.240;2.696;2023-04-29T05:28:36;11.20;79.00
73777;DHT22;62088;50.240;2.696;2023-04-29T05:31:04;11.20;79.10
73777;DHT22;62088;50.240;2.696;2023-04-29T05:33:32;11.20;79.10
73777;DHT22;62088;50.240;2.696;2023-04-29T05:35:59;11.20;79.10
73777;DHT22;62088;50.240;2.696;2023-04-29T05:38:26;11.10;79.10
73777;DHT22;62088;50.240;2.696;2023-04-29T05:41:06;11.20;79.20
73777;DHT22;62088;50.240;2.696;2023-04-29T05:43:39;11.10;79.20
73777;DHT22;62088;50.240;2.696;2023-04-29T05:46:06;11.10;79.30
73777;DHT22;62088;50.240;2.696;2023-04-29T05:48:34;11.20;79.30
73777;DHT22;62088;50.240;2.696;2023-04-29T05:51:01;11.20;79.30
73777;DHT22;62088;50.240;2.696;2023-04-29T05:53:28;11.20;79.30
73777;DHT22;62088;50.240;2.696;2023-04-29T05:55:56;11.10;79.30
73777;DHT22;62088;50.240;2.696;2023-04-29T05:58:23;11.10;79.30
73777;DHT22;62088;50.240;2.696;2023-04-29T06:00:51;11.10;79.30
73777;DHT22;62088;50.240;2.696;2023-04-29T06:03:21;11.10;79.30
73777;DHT22;62088;50.240;2.696;2023-04-29T06:06:13;11.10;79.40
73777;DHT22;62088;50.240;2.696;2023-04-29T06:08:59;11.10;79.40
73777;DHT22;62088;50.240;2.696;2023-04-29T06:11:28;11.10;79.30
73777;DHT22;62088;50.240;2.696;2023-04-29T06:13:55;11.10;79.30
73777;DHT22;62088;50.240;2.696;2023-04-29T06:16:23;11.10;79.30
73777;DHT22;62088;50.240;2.696;2023-04-29T06:18:50;11.00;79.20
73777;DHT22;62088;50.240;2.696;2023-04-29T06:21:17;11.00;79.20
73777;DHT22;62088;50.240;2.696;2023-04-29T06:23:44;11.00;79.10
73777;DHT22;62088;50.240;2.696;2023-04-29T06:26:16;11.00;79.00
73777;DHT22;62088;50.240;2.696;2023-04-29T06:28:43;11.00;79.00
73777;DHT22;62088;50.240;2.696;2023-04-29T06:31:11;11.00;79.00
73777;DHT22;62088;50.240;2.696;2023-04-29T06:33:38;11.00;79.10
73777;DHT22;62088;50.240;2.696;2023-04-29T06:36:06;11.00;79.10
73777;DHT22;62088;50.240;2.696;2023-04-29T06:38:51;11.10;79.20
73777;DHT22;62088;50.240;2.696;2023-04-29T06:41:37;11.00;79.10
73777;DHT22;62088;50.240;2.696;2023-04-29T06:44:24;11.00;79.10
73777;DHT22;62088;50.240;2.696;2023-04-29T06:47:02;11.00;79.10
73777;DHT22;62088;50.240;2.696;2023-04-29T06:49:41;11.00;79.10
73777;DHT22;62088;50.240;2.696;2023-04-29T06:52:09;11.00;79.00
73777;DHT22;62088;50.240;2.696;2023-04-29T06:54:37;11.00;78.80
73777;DHT22;62088;50.240;2.696;2023-04-29T06:57:04;11.00;78.60
73777;DHT22;62088;50.240;2.696;2023-04-29T06:59:31;11.00;78.60
73777;DHT22;62088;50.240;2.696;2023-04-29T07:01:58;11.00;78.50
73777;DHT22;62088;50.240;2.696;2023-04-29T07:04:25;11.00;78.50
73777;DHT22;62088;50.240;2.696;2023-04-29T07:06:53;11.00;78.60
73777;DHT22;62088;50.240;2.696;2023-04-29T07:09:20;11.00;78.70
73777;DHT22;62088;50.240;2.696;2023-04-29T07:11:47;11.00;78.70
73777;DHT22;62088;50.240;2.696;2023-04-29T07:14:14;11.10;78.70
73777;DHT22;62088;50.240;2.696;2023-04-29T07:16:41;11.10;78.60
73777;DHT22;62088;50.240;2.696;2023-04-29T07:19:09;11.10;78.60
73777;DHT22;62088;50.240;2.696;2023-04-29T07:21:36;11.10;78.70
73777;DHT22;62088;50.240;2.696;2023-04-29T07:24:04;11.10;78.70
73777;DHT22;62088;50.240;2.696;2023-04-29T07:26:31;11.10;78.60
73777;DHT22;62088;50.240;2.696;2023-04-29T07:28:58;11.20;78.60
73777;DHT22;62088;50.240;2.696;2023-04-29T07:31:25;11.20;78.50
73777;DHT22;62088;50.240;2.696;2023-04-29T07:33:53;11.20;78.40
73777;DHT22;62088;50.240;2.696;2023-04-29T07:36:21;11.20;78.30
73777;DHT22;62088;50.240;2.696;2023-04-29T07:38:48;11.20;78.30
73777;DHT22;62088;50.240;2.696;2023-04-29T07:41:15;11.30;78.30
73777;DHT22;62088;50.240;2.696;2023-04-29T07:43:42;11.30;78.30
73777;DHT22;62088;50.240;2.696;2023-04-29T07:46:09;11.30;78.20
73777;DHT22;62088;50.240;2.696;2023-04-29T07:48:38;11.30;78.10
73777;DHT22;62088;50.240;2.696;2023-04-29T07:51:05;11.30;77.80
73777;DHT22;62088;50.240;2.696;2023-04-29T07:53:32;11.30;77.60
73777;DHT22;62088;50.240;2.696;2023-04-29T07:56:04;11.40;77.10
73777;DHT22;62088;50.240;2.696;2023-04-29T07:58:32;11.30;76.90
73777;DHT22;62088;50.240;2.696;2023-04-29T08:01:09;11.40;76.70
73777;DHT22;62088;50.240;2.696;2023-04-29T08:03:39;11.40;76.60
73777;DHT22;62088;50.240;2.696;2023-04-29T08:06:10;11.40;76.60
73777;DHT22;62088;50.240;2.696;2023-04-29T08:08:40;11.40;76.50
73777;DHT22;62088;50.240;2.696;2023-04-29T08:11:15;11.40;76.40
73777;DHT22;62088;50.240;2.696;2023-04-29T08:13:42;11.40;76.30
73777;DHT22;62088;50.240;2.696;2023-04-29T08:16:10;11.40;76.30
73777;DHT22;62088;50.240;2.696;2023-04-29T08:18:39;11.40;76.30
73777;DHT22;62088;50.240;2.696;2023-04-29T08:21:06;11.40;76.20
73777;DHT22;62088;50.240;2.696;2023-04-29T08:23:35;11.40;76.20
73777;DHT22;62088;50.240;2.696;2023-04-29T08:26:02;11.40;76.20
73777;DHT22;62088;50.240;2.696;2023-04-29T08:28:29;11.40;76.30
73777;DHT22;62088;50.240;2.696;2023-04-29T08:30:56;11.40;76.50
73777;DHT22;62088;50.240;2.696;2023-04-29T08:33:23;11.40;76.60
73777;DHT22;62088;50.240;2.696;2023-04-29T08:35:57;11.40;76.70
73777;DHT22;62088;50.240;2.696;2023-04-29T08:38:25;11.50;76.70
73777;DHT22;62088;50.240;2.696;2023-04-29T08:40:53;11.50;76.70
73777;DHT22;62088;50.240;2.696;2023-04-29T08:43:21;11.50;76.80
73777;DHT22;62088;50.240;2.696;2023-04-29T08:45:48;11.60;76.80
73777;DHT22;62088;50.240;2.696;2023-04-29T08:48:16;11.60;76.70
73777;DHT22;62088;50.240;2.696;2023-04-29T08:50:44;11.60;76.70
73777;DHT22;62088;50.240;2.696;2023-04-29T08:53:13;11.60;76.60
73777;DHT22;62088;50.240;2.696;2023-04-29T08:55:49;11.60;76.60
73777;DHT22;62088;50.240;2.696;2023-04-29T08:58:16;11.60;76.60
73777;DHT22;62088;50.240;2.696;2023-04-29T09:00:44;11.70;76.60
73777;DHT22;62088;50.240;2.696;2023-04-29T09:06:02;11.70;76.60
73777;DHT22;62088;50.240;2.696;2023-04-29T09:08:31;11.70;76.60
73777;DHT22;62088;50.240;2.696;2023-04-29T09:10:59;11.70;76.60
73777;DHT22;62088;50.240;2.696;2023-04-29T09:13:29;11.70;76.70
73777;DHT22;62088;50.240;2.696;2023-04-29T09:15:57;11.80;76.70
73777;DHT22;62088;50.240;2.696;2023-04-29T09:18:49;11.70;76.70
73777;DHT22;62088;50.240;2.696;2023-04-29T09:21:19;11.80;76.70
73777;DHT22;62088;50.240;2.696;2023-04-29T09:23:56;11.80;76.60
73777;DHT22;62088;50.240;2.696;2023-04-29T09:26:24;11.80;76.60
73777;DHT22;62088;50.240;2.696;2023-04-29T09:29:11;11.80;76.60
73777;DHT22;62088;50.240;2.696;2023-04-29T09:31:44;11.90;76.60
73777;DHT22;62088;50.240;2.696;2023-04-29T09:34:12;11.90;76.60
73777;DHT22;62088;50.240;2.696;2023-04-29T09:36:47;11.90;76.60
73777;DHT22;62088;50.240;2.696;2023-04-29T09:39:14;11.90;76.50
73777;DHT22;62088;50.240;2.696;2023-04-29T09:44:23;11.90;76.40
73777;DHT22;62088;50.240;2.696;2023-04-29T09:47:07;11.90;76.40
73777;DHT22;62088;50.240;2.696;2023-04-29T09:49:39;11.90;76.40
73777;DHT22;62088;50.240;2.696;2023-04-29T09:52:09;11.90;76.40
73777;DHT22;62088;50.240;2.696;2023-04-29T09:54:38;11.90;76.30
73777;DHT22;62088;50.240;2.696;2023-04-29T09:57:08;11.90;76.30
73777;DHT22;62088;50.240;2.696;2023-04-29T09:59:37;11.90;76.20
73777;DHT22;62088;50.240;2.696;2023-04-29T10:02:13;12.00;76.00
73777;DHT22;62088;50.240;2.696;2023-04-29T10:04:46;12.00;75.90
73777;DHT22;62088;50.240;2.696;2023-04-29T10:07:17;12.00;75.80
73777;DHT22;62088;50.240;2.696;2023-04-29T10:09:46;12.00;75.70
73777;DHT22;62088;50.240;2.696;2023-04-29T10:12:18;12.00;75.60
73777;DHT22;62088;50.240;2.696;2023-04-29T10:17:48;12.10;75.40
73777;DHT22;62088;50.240;2.696;2023-04-29T10:20:22;12.20;75.20
73777;DHT22;62088;50.240;2.696;2023-04-29T10:22:54;12.20;74.90
73777;DHT22;62088;50.240;2.696;2023-04-29T10:25:23;12.20;74.80
73777;DHT22;62088;50.240;2.696;2023-04-29T10:27:51;12.20;74.70
73777;DHT22;62088;50.240;2.696;2023-04-29T10:30:20;12.20;74.60
73777;DHT22;62088;50.240;2.696;2023-04-29T10:32:48;12.30;74.60
73777;DHT22;62088;50.240;2.696;2023-04-29T10:35:19;12.40;74.50
73777;DHT22;62088;50.240;2.696;2023-04-29T10:37:48;12.40;74.40
73777;DHT22;62088;50.240;2.696;2023-04-29T10:42:48;12.40;74.30
73777;DHT22;62088;50.240;2.696;2023-04-29T10:45:31;12.40;73.70
73777;DHT22;62088;50.240;2.696;2023-04-29T10:53:15;12.40;73.10
73777;DHT22;62088;50.240;2.696;2023-04-29T10:55:46;12.40;73.40
73777;DHT22;62088;50.240;2.696;2023-04-29T10:58:36;12.40;73.60
73777;DHT22;62088;50.240;2.696;2023-04-29T11:01:04;12.40;73.00
73777;DHT22;62088;50.240;2.696;2023-04-29T11:06:13;12.40;72.10
73777;DHT22;62088;50.240;2.696;2023-04-29T11:08:40;12.40;72.00
73777;DHT22;62088;50.240;2.696;2023-04-29T11:11:09;12.40;71.60
73777;DHT22;62088;50.240;2.696;2023-04-29T11:13:39;12.40;71.40
73777;DHT22;62088;50.240;2.696;2023-04-29T11:18:35;12.40;71.70
73777;DHT22;62088;50.240;2.696;2023-04-29T11:23:36;12.50;72.10
73777;DHT22;62088;50.240;2.696;2023-04-29T11:26:04;12.50;72.10
73777;DHT22;62088;50.240;2.696;2023-04-29T11:28:32;12.60;72.00
73777;DHT22;62088;50.240;2.696;2023-04-29T11:31:00;12.60;71.80
73777;DHT22;62088;50.240;2.696;2023-04-29T11:33:31;12.70;71.80
73777;DHT22;62088;50.240;2.696;2023-04-29T11:35:58;12.80;71.80
73777;DHT22;62088;50.240;2.696;2023-04-29T11:38:27;12.90;71.70
73777;DHT22;62088;50.240;2.696;2023-04-29T11:40:58;12.90;71.60
73777;DHT22;62088;50.240;2.696;2023-04-29T11:43:26;13.00;71.60
73777;DHT22;62088;50.240;2.696;2023-04-29T11:45:53;13.00;71.40
73777;DHT22;62088;50.240;2.696;2023-04-29T11:48:24;13.10;71.10
73777;DHT22;62088;50.240;2.696;2023-04-29T11:50:56;13.10;70.60
73777;DHT22;62088;50.240;2.696;2023-04-29T11:53:25;13.10;69.90
73777;DHT22;62088;50.240;2.696;2023-04-29T11:55:56;13.10;68.90
73777;DHT22;62088;50.240;2.696;2023-04-29T11:58:23;13.20;68.80
73777;DHT22;62088;50.240;2.696;2023-04-29T12:00:50;13.20;68.80
73777;DHT22;62088;50.240;2.696;2023-04-29T12:03:19;13.10;68.70
73777;DHT22;62088;50.240;2.696;2023-04-29T12:08:13;13.10;69.00
73777;DHT22;62088;50.240;2.696;2023-04-29T12:10:40;13.10;68.90
73777;DHT22;62088;50.240;2.696;2023-04-29T12:13:07;13.10;68.80
73777;DHT22;62088;50.240;2.696;2023-04-29T12:15:36;13.20;68.80
73777;DHT22;62088;50.240;2.696;2023-04-29T12:18:06;13.20;68.50
73777;DHT22;62088;50.240;2.696;2023-04-29T12:20:34;13.20;68.60
73777;DHT22;62088;50.240;2.696;2023-04-29T12:25:39;13.20;69.10
73777;DHT22;62088;50.240;2.696;2023-04-29T12:28:13;13.20;69.10
73777;DHT22;62088;50.240;2.696;2023-04-29T12:30:43;13.20;68.20
73777;DHT22;62088;50.240;2.696;2023-04-29T12:33:17;13.20;68.00
73777;DHT22;62088;50.240;2.696;2023-04-29T12:35:44;13.20;67.80
73777;DHT22;62088;50.240;2.696;2023-04-29T12:38:15;13.30;67.90
73777;DHT22;62088;50.240;2.696;2023-04-29T12:40:43;13.30;68.10
73777;DHT22;62088;50.240;2.696;2023-04-29T12:43:11;13.30;67.80
73777;DHT22;62088;50.240;2.696;2023-04-29T12:45:38;13.40;67.80
73777;DHT22;62088;50.240;2.696;2023-04-29T12:48:05;13.40;67.90
73777;DHT22;62088;50.240;2.696;2023-04-29T12:50:40;13.40;68.30
73777;DHT22;62088;50.240;2.696;2023-04-29T12:53:08;13.50;68.40
73777;DHT22;62088;50.240;2.696;2023-04-29T12:55:36;13.50;68.50
73777;DHT22;62088;50.240;2.696;2023-04-29T12:58:04;13.50;68.00
73777;DHT22;62088;50.240;2.696;2023-04-29T13:00:31;13.60;67.80
73777;DHT22;62088;50.240;2.696;2023-04-29T13:03:00;13.60;67.70
73777;DHT22;62088;50.240;2.696;2023-04-29T13:05:28;13.50;67.50
73777;DHT22;62088;50.240;2.696;2023-04-29T13:07:55;13.50;67.50
73777;DHT22;62088;50.240;2.696;2023-04-29T13:10:22;13.50;67.50
73777;DHT22;62088;50.240;2.696;2023-04-29T13:12:49;13.60;67.40
73777;DHT22;62088;50.240;2.696;2023-04-29T13:15:17;13.60;67.00
73777;DHT22;62088;50.240;2.696;2023-04-29T13:17:44;13.60;66.90
73777;DHT22;62088;50.240;2.696;2023-04-29T13:20:12;13.50;66.60
73777;DHT22;62088;50.240;2.696;2023-04-29T13:22:39;13.60;66.20
73777;DHT22;62088;50.240;2.696;2023-04-29T13:25:06;13.50;66.10
73777;DHT22;62088;50.240;2.696;2023-04-29T13:27:34;13.60;66.50
73777;DHT22;62088;50.240;2.696;2023-04-29T13:30:01;13.60;67.10
73777;DHT22;62088;50.240;2.696;2023-04-29T13:32:28;13.70;67.60
73777;DHT22;62088;50.240;2.696;2023-04-29T13:35:10;13.80;67.50
73777;DHT22;62088;50.240;2.696;2023-04-29T13:37:38;13.90;67.10
73777;DHT22;62088;50.240;2.696;2023-04-29T13:40:05;13.90;66.70
73777;DHT22;62088;50.240;2.696;2023-04-29T13:42:34;13.90;66.60
73777;DHT22;62088;50.240;2.696;2023-04-29T13:45:12;13.90;66.20
73777;DHT22;62088;50.240;2.696;2023-04-29T13:47:42;13.90;66.20
73777;DHT22;62088;50.240;2.696;2023-04-29T13:50:30;13.90;66.20
73777;DHT22;62088;50.240;2.696;2023-04-29T13:52:59;14.00;66.10
73777;DHT22;62088;50.240;2.696;2023-04-29T13:55:47;14.10;66.20
73777;DHT22;62088;50.240;2.696;2023-04-29T13:58:35;14.10;66.20
73777;DHT22;62088;50.240;2.696;2023-04-29T14:01:05;14.10;66.00
73777;DHT22;62088;50.240;2.696;2023-04-29T14:03:52;14.10;65.90
73777;DHT22;62088;50.240;2.696;2023-04-29T14:06:19;14.20;65.60
73777;DHT22;62088;50.240;2.696;2023-04-29T14:08:47;14.20;64.80
73777;DHT22;62088;50.240;2.696;2023-04-29T14:11:14;14.20;64.50
73777;DHT22;62088;50.240;2.696;2023-04-29T14:13:41;14.20;64.60
73777;DHT22;62088;50.240;2.696;2023-04-29T14:16:09;14.30;64.90
73777;DHT22;62088;50.240;2.696;2023-04-29T14:18:37;14.30;64.80
73777;DHT22;62088;50.240;2.696;2023-04-29T14:21:04;14.40;64.80
73777;DHT22;62088;50.240;2.696;2023-04-29T14:23:31;14.40;64.40
73777;DHT22;62088;50.240;2.696;2023-04-29T14:25:58;14.40;63.80
73777;DHT22;62088;50.240;2.696;2023-04-29T14:28:45;14.40;64.00
73777;DHT22;62088;50.240;2.696;2023-04-29T14:31:12;14.40;64.40
73777;DHT22;62088;50.240;2.696;2023-04-29T14:33:39;14.40;64.40
73777;DHT22;62088;50.240;2.696;2023-04-29T14:36:06;14.40;64.30
73777;DHT22;62088;50.240;2.696;2023-04-29T14:38:34;14.40;64.30
73777;DHT22;62088;50.240;2.696;2023-04-29T14:41:01;14.50;64.50
73777;DHT22;62088;50.240;2.696;2023-04-29T14:43:28;14.50;64.60
73777;DHT22;62088;50.240;2.696;2023-04-29T14:45:55;14.50;64.60
73777;DHT22;62088;50.240;2.696;2023-04-29T14:48:22;14.50;64.60
73777;DHT22;62088;50.240;2.696;2023-04-29T14:50:50;14.60;64.30
73777;DHT22;62088;50.240;2.696;2023-04-29T14:53:17;14.50;64.50
73777;DHT22;62088;50.240;2.696;2023-04-29T14:55:44;14.50;64.70
73777;DHT22;62088;50.240;2.696;2023-04-29T14:58:11;14.60;64.80
73777;DHT22;62088;50.240;2.696;2023-04-29T15:00:38;14.50;65.00
73777;DHT22;62088;50.240;2.696;2023-04-29T15:03:05;14.60;65.10
73777;DHT22;62088;50.240;2.696;2023-04-29T15:05:33;14.60;65.10
73777;DHT22;62088;50.240;2.696;2023-04-29T15:08:00;14.60;65.10
73777;DHT22;62088;50.240;2.696;2023-04-29T15:10:28;14.50;65.30
73777;DHT22;62088;50.240;2.696;2023-04-29T15:12:56;14.50;65.50
73777;DHT22;62088;50.240;2.696;2023-04-29T15:15:23;14.50;65.10
73777;DHT22;62088;50.240;2.696;2023-04-29T15:17:50;14.50;64.80
73777;DHT22;62088;50.240;2.696;2023-04-29T15:20:17;14.50;64.80
73777;DHT22;62088;50.240;2.696;2023-04-29T15:22:44;14.40;65.10
73777;DHT22;62088;50.240;2.696;2023-04-29T15:25:11;14.40;65.40
73777;DHT22;62088;50.240;2.696;2023-04-29T15:27:38;14.40;65.70
73777;DHT22;62088;50.240;2.696;2023-04-29T15:30:05;14.40;65.60
73777;DHT22;62088;50.240;2.696;2023-04-29T15:32:33;14.40;65.70
73777;DHT22;62088;50.240;2.696;2023-04-29T15:35:01;14.40;65.90
73777;DHT22;62088;50.240;2.696;2023-04-29T15:37:28;14.40;65.90
73777;DHT22;62088;50.240;2.696;2023-04-29T15:39:59;14.40;65.70
73777;DHT22;62088;50.240;2.696;2023-04-29T15:42:27;14.40;65.80
73777;DHT22;62088;50.240;2.696;2023-04-29T15:44:54;14.40;65.80
73777;DHT22;62088;50.240;2.696;2023-04-29T15:47:21;14.40;65.60
73777;DHT22;62088;50.240;2.696;2023-04-29T15:49:48;14.40;65.50
73777;DHT22;62088;50.240;2.696;2023-04-29T15:52:18;14.40;65.50
73777;DHT22;62088;50.240;2.696;2023-04-29T15:54:45;14.40;65.60
73777;DHT22;62088;50.240;2.696;2023-04-29T15:57:13;14.40;65.70
73777;DHT22;62088;50.240;2.696;2023-04-29T15:59:40;14.30;65.80
73777;DHT22;62088;50.240;2.696;2023-04-29T16:02:07;14.30;65.80
73777;DHT22;62088;50.240;2.696;2023-04-29T16:04:38;14.30;65.70
73777;DHT22;62088;50.240;2.696;2023-04-29T16:07:05;14.30;65.80
73777;DHT22;62088;50.240;2.696;2023-04-29T16:09:33;14.30;65.90
73777;DHT22;62088;50.240;2.696;2023-04-29T16:12:01;14.40;66.00
73777;DHT22;62088;50.240;2.696;2023-04-29T16:14:28;14.40;66.10
73777;DHT22;62088;50.240;2.696;2023-04-29T16:16:56;14.40;66.00
73777;DHT22;62088;50.240;2.696;2023-04-29T16:19:23;14.40;65.90
73777;DHT22;62088;50.240;2.696;2023-04-29T16:21:50;14.40;65.80